Time;durP1;ratioP1;P1;durP2;ratioP2;P2;SDS_P1;SDS_P2;PMS_P1;PMS_P2;Temp;Humidity;BMP_temperature;BMP_pressure;BME280_temperature;BME280_humidity;BME280_pressure;Samples;Min_cycle;Max_cycle;Signal;HPM_P1;HPM_P2
2021/11/23 00:00:12;;;;;;;11.98;5.40;;;;;;;3.95;99.55;103253.03;5072524;28;20031;-67
2021/11/23 00:02:39;;;;;;;13.77;5.20;;;;;;;3.94;99.72;103256.53;5072225;28;20056;-67
2021/11/23 00:05:05;;;;;;;14.52;5.50;;;;;;;3.93;99.11;103246.91;5072176;28;20025;-67
2021/11/23 00:07:31;;;;;;;13.25;5.50;;;;;;;3.94;99.31;103259.16;5072739;28;21205;-67
2021/11/23 00:09:56;;;;;;;13.98;5.70;;;;;;;3.96;99.19;103248.69;5089184;28;20627;-67
2021/11/23 00:12:22;;;;;;;14.05;5.38;;;;;;;3.94;99.04;103239.06;5092310;28;20028;-67
2021/11/23 00:14:48;;;;;;;12.20;5.88;;;;;;;3.96;99.07;103243.47;5090735;28;20024;-67
2021/11/23 00:17:13;;;;;;;14.13;5.93;;;;;;;4.00;99.41;103250.53;5092055;28;20038;-67
2021/11/23 00:19:38;;;;;;;13.55;5.22;;;;;;;4.04;99.81;103247.13;5079034;28;20042;-67
2021/11/23 00:22:04;;;;;;;12.25;5.45;;;;;;;4.10;99.57;103245.53;5068578;28;20422;-66
2021/11/23 00:24:29;;;;;;;13.35;5.63;;;;;;;4.16;99.93;103243.88;5052051;28;20108;-67
2021/11/23 00:26:55;;;;;;;12.90;5.28;;;;;;;4.24;100.00;103251.03;5052148;28;20057;-67
2021/11/23 00:29:20;;;;;;;16.45;5.43;;;;;;;4.33;100.00;103247.72;5056847;28;20032;-67
2021/11/23 00:31:45;;;;;;;11.15;5.38;;;;;;;4.42;100.00;103242.69;5071749;28;20024;-67
2021/11/23 00:34:11;;;;;;;13.52;5.35;;;;;;;4.48;99.82;103243.66;5074899;28;20032;-67
2021/11/23 00:36:36;;;;;;;9.52;5.07;;;;;;;4.52;99.53;103241.09;5091520;28;20537;-67
2021/11/23 00:39:03;;;;;;;16.17;5.30;;;;;;;4.58;99.64;103249.09;5095388;28;20169;-67
2021/11/23 00:41:28;;;;;;;14.77;4.88;;;;;;;4.66;99.59;103246.59;5061441;28;20060;-67
2021/11/23 00:43:53;;;;;;;11.60;4.82;;;;;;;4.66;98.58;103243.97;5055610;28;20086;-67
2021/11/23 00:46:18;;;;;;;13.75;4.75;;;;;;;4.68;98.52;103233.50;5073277;28;20387;-67
2021/11/23 00:48:44;;;;;;;10.27;4.47;;;;;;;4.72;98.07;103238.84;5075369;28;20028;-67
2021/11/23 00:51:10;;;;;;;12.32;4.95;;;;;;;4.78;98.49;103245.06;5075170;28;20465;-67
2021/11/23 00:53:35;;;;;;;9.07;3.95;;;;;;;4.79;98.02;103236.34;5074880;28;20048;-68
2021/11/23 00:56:02;;;;;;;8.93;4.32;;;;;;;4.80;97.38;103240.75;5076049;28;20565;-67
2021/11/23 00:58:27;;;;;;;9.73;4.25;;;;;;;4.81;97.44;103238.13;5075222;28;20068;-67
2021/11/23 01:00:53;;;;;;;10.43;4.93;;;;;;;4.84;97.50;103239.94;5062975;28;20045;-67
2021/11/23 01:03:18;;;;;;;10.57;4.28;;;;;;;4.85;97.65;103247.81;5074984;28;20373;-67
2021/11/23 01:05:47;;;;;;;11.75;4.68;;;;;;;4.88;97.75;103242.63;5075404;28;20056;-67
2021/11/23 01:08:13;;;;;;;11.70;4.57;;;;;;;4.92;98.13;103244.47;5054691;28;20028;-67
2021/11/23 01:10:39;;;;;;;12.70;4.75;;;;;;;4.94;98.19;103239.22;5062886;28;20464;-67
2021/11/23 01:13:05;;;;;;;10.07;4.30;;;;;;;5.01;97.82;103242.84;5074684;28;20102;-68
2021/11/23 01:15:30;;;;;;;15.95;4.40;;;;;;;5.04;98.19;103241.16;5074634;28;20508;-67
2021/11/23 01:17:56;;;;;;;12.02;4.38;;;;;;;5.11;97.99;103238.63;5075878;28;20036;-67
2021/11/23 01:20:23;;;;;;;12.60;4.63;;;;;;;5.17;98.11;103220.34;5074776;28;20024;-67
2021/11/23 01:22:48;;;;;;;9.52;4.03;;;;;;;5.18;97.52;103230.88;5074257;28;20115;-67
2021/11/23 01:25:15;;;;;;;9.07;4.03;;;;;;;5.22;97.43;103232.69;5074667;28;20071;-67
2021/11/23 01:27:40;;;;;;;11.15;3.70;;;;;;;5.21;97.02;103230.06;5075679;28;20449;-67
2021/11/23 01:30:08;;;;;;;10.68;4.50;;;;;;;5.24;97.04;103227.47;5074425;28;20070;-67
2021/11/23 01:32:34;;;;;;;9.63;4.10;;;;;;;5.24;98.05;103228.38;5074494;28;20024;-67
2021/11/23 01:35:00;;;;;;;7.90;3.70;;;;;;;5.28;97.74;103225.78;5074414;28;20127;-67
2021/11/23 01:37:26;;;;;;;9.95;3.65;;;;;;;5.34;98.28;103225.88;5074513;28;20437;-68
2021/11/23 01:39:51;;;;;;;11.15;3.47;;;;;;;5.37;98.40;103224.19;5074945;28;20056;-67
2021/11/23 01:42:18;;;;;;;15.70;3.60;;;;;;;5.42;97.92;103216.34;5073879;28;20028;-67
2021/11/23 01:44:43;;;;;;;8.77;3.33;;;;;;;5.46;98.32;103219.91;5074226;28;20039;-67
2021/11/23 01:47:08;;;;;;;12.57;3.35;;;;;;;5.52;98.09;103215.63;5074168;28;20119;-67
2021/11/23 01:49:33;;;;;;;6.95;3.00;;;;;;;5.54;97.30;103219.16;5075129;28;20534;-67
2021/11/23 01:51:59;;;;;;;10.05;3.10;;;;;;;5.56;97.83;103217.47;5073783;28;20028;-67
2021/11/23 01:54:25;;;;;;;8.75;3.10;;;;;;;5.62;97.36;103214.00;5073784;28;20096;-67
2021/11/23 01:56:51;;;;;;;7.68;2.60;;;;;;;5.68;97.81;103222.00;5073628;28;20392;-67
2021/11/23 01:59:16;;;;;;;7.88;2.55;;;;;;;5.74;97.49;103223.81;5074880;28;20021;-67
2021/11/23 02:01:42;;;;;;;8.05;2.80;;;;;;;5.78;97.48;103222.13;5073732;28;20029;-67
2021/11/23 02:04:08;;;;;;;8.23;2.60;;;;;;;5.81;97.03;103212.53;5073761;28;20491;-67
2021/11/23 02:06:33;;;;;;;7.85;2.63;;;;;;;5.84;97.52;103214.31;5073641;28;20487;-67
2021/11/23 02:08:59;;;;;;;11.55;2.67;;;;;;;5.89;97.39;103205.59;5073746;28;20088;-67
2021/11/23 02:11:25;;;;;;;7.22;2.80;;;;;;;5.95;96.79;103204.81;5074314;28;20107;-67
2021/11/23 02:13:51;;;;;;;9.88;3.20;;;;;;;5.99;96.40;103200.53;5073575;28;20036;-67
2021/11/23 02:16:17;;;;;;;10.75;2.70;;;;;;;5.99;96.67;103214.53;5073578;28;20025;-67
2021/11/23 02:18:42;;;;;;;12.48;2.70;;;;;;;5.96;96.05;103214.47;5073353;28;20043;-67
2021/11/23 02:21:08;;;;;;;8.70;2.70;;;;;;;5.92;96.05;103220.56;5081745;28;20033;-66
2021/11/23 02:23:33;;;;;;;7.35;3.00;;;;;;;5.85;96.07;103209.06;5085908;28;20056;-67
2021/11/23 02:25:58;;;;;;;8.57;2.90;;;;;;;5.83;96.66;103207.28;5073252;28;20082;-67
2021/11/23 02:28:24;;;;;;;5.57;2.60;;;;;;;5.86;96.96;103213.47;5073612;28;20099;-67
2021/11/23 02:30:52;;;;;;;11.65;2.65;;;;;;;5.91;97.33;103203.03;5073012;28;20482;-67
2021/11/23 02:33:20;;;;;;;6.57;2.78;;;;;;;5.93;97.81;103198.63;5092952;28;20131;-67
2021/11/23 02:35:47;;;;;;;8.48;2.50;;;;;;;5.97;97.40;103196.94;5073476;28;20060;-67
2021/11/23 02:38:13;;;;;;;11.43;2.97;;;;;;;6.02;97.49;103195.28;5072964;28;20325;-67
2021/11/23 02:40:39;;;;;;;9.88;3.08;;;;;;;6.04;97.24;103183.03;5073146;28;20063;-67
2021/11/23 02:43:04;;;;;;;7.72;2.90;;;;;;;6.05;97.83;103185.69;5086010;28;20483;-67
2021/11/23 02:45:30;;;;;;;8.80;3.05;;;;;;;6.07;97.77;103183.06;5081428;28;20032;-67
2021/11/23 02:47:58;;;;;;;6.55;2.85;;;;;;;6.11;97.44;103182.22;5093260;28;20094;-67
2021/11/23 02:50:24;;;;;;;8.90;2.88;;;;;;;6.13;97.46;103179.63;5093525;28;20024;-66
2021/11/23 02:52:51;;;;;;;12.70;2.95;;;;;;;6.17;97.32;103179.66;5091726;28;20022;-67
2021/11/23 02:55:19;;;;;;;8.23;2.85;;;;;;;6.17;97.27;103171.78;5088135;28;20035;-67
2021/11/23 02:57:45;;;;;;;12.82;3.42;;;;;;;6.20;97.42;103173.56;5072319;28;20027;-67
2021/11/23 03:00:16;;;;;;;15.57;5.65;;;;;;;6.23;97.30;103176.25;5072412;28;20025;-67
2021/11/23 03:02:42;;;;;;;11.02;5.47;;;;;;;6.25;96.84;103166.59;5072901;28;20377;-67
2021/11/23 03:05:08;;;;;;;8.77;4.60;;;;;;;6.26;96.80;103170.13;5091606;28;20032;-67
2021/11/23 03:07:34;;;;;;;8.55;3.20;;;;;;;6.33;96.75;103166.69;5082690;28;20035;-67
2021/11/23 03:09:59;;;;;;;12.85;3.58;;;;;;;6.30;96.50;103167.53;5072499;28;20030;-68
2021/11/23 03:12:26;;;;;;;7.22;2.67;;;;;;;6.38;96.69;103163.25;5072576;28;20054;-67
2021/11/23 03:14:52;;;;;;;7.90;2.55;;;;;;;6.42;95.99;103165.91;5073766;28;20060;-67
2021/11/23 03:17:19;;;;;;;8.55;3.30;;;;;;;6.37;96.27;103165.88;5072419;28;20028;-67
2021/11/23 03:19:46;;;;;;;6.75;2.67;;;;;;;6.33;95.49;103154.44;5072504;28;20032;-67
2021/11/23 03:22:13;;;;;;;9.63;2.95;;;;;;;6.33;96.04;103154.44;5072539;28;20020;-67
2021/11/23 03:24:39;;;;;;;11.15;3.10;;;;;;;6.36;96.41;103154.44;5073616;28;20074;-67
2021/11/23 03:27:07;;;;;;;11.10;3.00;;;;;;;6.35;95.95;103167.59;5072547;28;20017;-67
2021/11/23 03:29:32;;;;;;;11.45;2.70;;;;;;;6.31;96.33;103168.44;5072507;28;20036;-67
2021/11/23 03:31:58;;;;;;;10.10;2.72;;;;;;;6.29;96.68;103167.53;5072597;28;20028;-67
2021/11/23 03:34:23;;;;;;;8.00;2.90;;;;;;;6.28;96.49;103161.38;5072218;28;20041;-67
2021/11/23 03:36:49;;;;;;;8.88;2.88;;;;;;;6.26;96.27;103159.59;5073492;28;20064;-67
2021/11/23 03:39:15;;;;;;;9.75;3.20;;;;;;;6.27;97.21;103158.75;5072092;28;20044;-67
2021/11/23 03:41:40;;;;;;;7.70;3.03;;;;;;;6.28;96.98;103163.13;5072523;28;20031;-67
2021/11/23 03:44:06;;;;;;;9.75;3.40;;;;;;;6.29;97.57;103162.25;5072071;28;20469;-67
2021/11/23 03:46:32;;;;;;;8.32;2.85;;;;;;;6.30;97.34;103170.16;5073451;28;20041;-67
2021/11/23 03:48:58;;;;;;;9.23;2.60;;;;;;;6.28;96.96;103161.38;5072416;28;20362;-67
2021/11/23 03:51:24;;;;;;;8.25;2.40;;;;;;;6.29;97.33;103163.16;5072240;28;20073;-67
2021/11/23 03:53:49;;;;;;;10.57;2.75;;;;;;;6.32;97.51;103167.56;5072334;28;20099;-67
2021/11/23 03:56:14;;;;;;;8.93;2.28;;;;;;;6.36;97.39;103164.09;5073295;28;20107;-66
2021/11/23 03:58:41;;;;;;;11.10;2.90;;;;;;;6.37;97.39;103166.75;5071958;28;20032;-67
2021/11/23 04:01:08;;;;;;;9.65;2.75;;;;;;;6.38;97.94;103162.34;5060294;28;20025;-67
2021/11/23 04:03:34;;;;;;;7.47;2.67;;;;;;;6.42;97.76;103163.25;5052093;28;20080;-67
2021/11/23 04:06:00;;;;;;;11.75;2.88;;;;;;;6.47;97.99;103159.84;5052430;28;20032;-67
2021/11/23 04:08:25;;;;;;;8.88;2.50;;;;;;;6.52;98.33;103157.22;5067898;28;20591;-67
2021/11/23 04:10:51;;;;;;;7.68;2.50;;;;;;;6.53;98.44;103151.09;5071720;28;20028;-67
2021/11/23 04:13:18;;;;;;;10.05;2.42;;;;;;;6.58;98.15;103156.41;5074504;28;20384;-67
2021/11/23 04:15:44;;;;;;;6.05;2.10;;;;;;;6.60;98.28;103155.56;5076006;28;20029;-67
2021/11/23 04:18:10;;;;;;;9.07;2.53;;;;;;;6.59;98.56;103161.69;5077235;28;20034;-66
2021/11/23 04:20:35;;;;;;;5.65;2.20;;;;;;;6.58;98.48;103157.28;5075813;28;20028;-67
2021/11/23 04:23:00;;;;;;;9.48;2.40;;;;;;;6.60;98.56;103157.28;5075462;28;20484;-69
2021/11/23 04:25:26;;;;;;;8.15;2.35;;;;;;;6.60;98.73;103159.91;5075710;28;20024;-67
2021/11/23 04:27:52;;;;;;;7.03;2.40;;;;;;;6.58;99.21;103156.41;5075683;28;20112;-67
2021/11/23 04:30:17;;;;;;;5.30;2.22;;;;;;;6.55;98.99;103155.50;5076411;28;20064;-67
2021/11/23 04:32:43;;;;;;;7.53;2.35;;;;;;;6.56;99.38;103154.63;5075282;28;20052;-67
2021/11/23 04:35:09;;;;;;;6.10;2.40;;;;;;;6.55;99.21;103150.25;5075886;28;20021;-67
2021/11/23 04:37:35;;;;;;;11.65;2.60;;;;;;;6.56;99.50;103152.00;5075644;28;20103;-67
2021/11/23 04:40:03;;;;;;;8.32;2.35;;;;;;;6.55;99.62;103150.25;5076864;28;20035;-67
2021/11/23 04:42:28;;;;;;;6.70;2.58;;;;;;;6.52;100.00;103144.97;5075062;28;20035;-67
2021/11/23 04:44:54;;;;;;;7.13;2.30;;;;;;;6.54;100.00;103152.88;5075178;28;20431;-67
2021/11/23 04:47:19;;;;;;;5.35;2.33;;;;;;;6.54;100.00;103148.47;5075312;28;20071;-66
2021/11/23 04:49:44;;;;;;;9.20;2.53;;;;;;;6.54;100.00;103142.34;5076534;28;20454;-67
2021/11/23 04:52:10;;;;;;;7.03;2.00;;;;;;;6.55;100.00;103134.44;5075294;28;20024;-67
2021/11/23 04:54:35;;;;;;;6.80;2.65;;;;;;;6.56;100.00;103140.63;5074871;28;20030;-67
2021/11/23 04:57:01;;;;;;;8.55;2.55;;;;;;;6.56;100.00;103138.84;5074802;28;20031;-67
2021/11/23 04:59:26;;;;;;;8.15;2.33;;;;;;;6.59;100.00;103124.81;5075972;28;20047;-67
2021/11/23 05:01:51;;;;;;;7.95;2.25;;;;;;;6.61;100.00;103143.25;5075085;28;20017;-67
2021/11/23 05:04:16;;;;;;;8.30;2.40;;;;;;;6.61;100.00;103127.47;5075056;28;20358;-67
2021/11/23 05:06:42;;;;;;;8.95;2.65;;;;;;;6.58;100.00;103124.81;5074607;28;20040;-67
2021/11/23 05:09:07;;;;;;;7.57;2.70;;;;;;;6.55;100.00;103125.69;5075045;28;20035;-67
2021/11/23 05:11:35;;;;;;;11.80;2.55;;;;;;;6.55;100.00;103121.28;5076007;28;20024;-67
2021/11/23 05:14:01;;;;;;;4.82;2.50;;;;;;;6.60;100.00;103128.34;5074986;28;20043;-67
2021/11/23 05:16:27;;;;;;;8.75;3.50;;;;;;;6.68;100.00;103127.53;5074726;28;20465;-67
2021/11/23 05:18:52;;;;;;;8.65;3.75;;;;;;;6.75;100.00;103130.22;5074132;28;20093;-67
2021/11/23 05:21:17;;;;;;;8.20;3.30;;;;;;;6.76;100.00;103127.59;5075530;28;20028;-66
2021/11/23 05:23:42;;;;;;;8.93;3.22;;;;;;;6.75;100.00;103128.44;5074308;28;20056;-67
2021/11/23 05:26:08;;;;;;;7.20;2.92;;;;;;;6.76;100.00;103132.00;5074712;28;20407;-67
2021/11/23 05:28:33;;;;;;;9.80;3.42;;;;;;;6.78;100.00;103135.50;5074226;28;20035;-67
2021/11/23 05:30:58;;;;;;;6.70;2.80;;;;;;;6.79;100.00;103132.91;5074221;28;20016;-67
2021/11/23 05:33:24;;;;;;;7.18;3.05;;;;;;;6.83;100.00;103136.41;5075478;28;20040;-66
2021/11/23 05:35:50;;;;;;;10.73;3.13;;;;;;;6.84;100.00;103136.44;5074487;28;20021;-67
2021/11/23 05:38:19;;;;;;;9.60;3.30;;;;;;;6.84;100.00;103131.19;5073935;28;20107;-67
2021/11/23 05:40:45;;;;;;;8.13;3.00;;;;;;;6.84;100.00;103133.81;5054135;28;20445;-65
2021/11/23 05:43:13;;;;;;;8.10;2.58;;;;;;;6.90;100.00;103138.25;5066948;28;20020;-67
2021/11/23 05:45:39;;;;;;;7.93;2.42;;;;;;;6.96;100.00;103140.91;5074213;28;20016;-67
2021/11/23 05:48:05;;;;;;;9.43;2.25;;;;;;;7.01;100.00;103133.06;5074102;28;20467;-67
2021/11/23 05:50:31;;;;;;;10.15;2.65;;;;;;;7.01;100.00;103123.41;5073886;28;20052;-66
2021/11/23 05:52:56;;;;;;;7.00;2.55;;;;;;;7.03;100.00;103124.31;5075401;28;20107;-67
2021/11/23 05:55:22;;;;;;;8.10;2.67;;;;;;;7.05;100.00;103122.53;5074140;28;20021;-66
2021/11/23 05:57:47;;;;;;;6.68;2.28;;;;;;;7.08;100.00;103126.06;5073811;28;20379;-66
2021/11/23 06:00:13;;;;;;;6.70;2.47;;;;;;;7.08;100.00;103129.56;5073592;28;20357;-66
2021/11/23 06:02:38;;;;;;;11.07;3.08;;;;;;;7.04;100.00;103128.66;5074075;28;20544;-66
2021/11/23 06:05:04;;;;;;;7.90;2.50;;;;;;;7.01;100.00;103128.66;5074907;28;20075;-66
2021/11/23 06:07:30;;;;;;;8.77;3.00;;;;;;;6.98;100.00;103130.38;5073647;28;20106;-66
2021/11/23 06:09:55;;;;;;;8.52;2.60;;;;;;;6.97;100.00;103132.16;5072081;28;20522;-64
2021/11/23 06:12:21;;;;;;;8.15;2.75;;;;;;;6.97;100.00;103134.78;5070454;28;20472;-66
2021/11/23 06:14:47;;;;;;;6.28;2.72;;;;;;;7.01;100.00;103128.66;5071864;28;20024;-66
2021/11/23 06:17:13;;;;;;;11.15;2.90;;;;;;;6.98;100.00;103126.03;5073331;28;20036;-66
2021/11/23 06:19:38;;;;;;;9.55;3.95;;;;;;;6.95;100.00;103125.97;5073470;28;20478;-66
2021/11/23 06:22:06;;;;;;;9.88;3.00;;;;;;;6.95;100.00;103131.25;5072970;28;20060;-66
2021/11/23 06:24:31;;;;;;;8.68;2.47;;;;;;;6.96;100.00;103137.41;5073648;28;20468;-66
2021/11/23 06:26:56;;;;;;;7.95;2.60;;;;;;;6.96;100.00;103132.16;5092811;28;20073;-66
2021/11/23 06:29:22;;;;;;;6.28;3.17;;;;;;;6.94;100.00;103137.38;5087750;28;20025;-66
2021/11/23 06:31:47;;;;;;;8.75;3.00;;;;;;;6.94;100.00;103139.16;5072632;28;20436;-66
2021/11/23 06:34:12;;;;;;;8.63;3.08;;;;;;;6.96;100.00;103133.03;5072739;28;20515;-66
2021/11/23 06:36:37;;;;;;;12.25;2.90;;;;;;;6.97;100.00;103144.44;5073386;28;20043;-68
2021/11/23 06:39:05;;;;;;;11.23;3.42;;;;;;;6.98;100.00;103143.56;5073167;28;20050;-67
2021/11/23 06:41:30;;;;;;;13.48;3.53;;;;;;;7.03;100.00;103149.75;5073263;28;20043;-68
2021/11/23 06:43:56;;;;;;;8.20;3.50;;;;;;;7.08;100.00;103144.53;5072740;28;20029;-67
2021/11/23 06:46:22;;;;;;;8.20;3.17;;;;;;;7.11;100.00;103141.88;5073729;28;20051;-67
2021/11/23 06:48:47;;;;;;;11.50;2.95;;;;;;;7.15;100.00;103144.56;5072904;28;20139;-67
2021/11/23 06:51:13;;;;;;;10.10;3.00;;;;;;;7.17;100.00;103145.47;5072677;28;20056;-66
2021/11/23 06:53:38;;;;;;;12.38;3.28;;;;;;;7.19;100.00;103142.84;5072106;28;20040;-66
2021/11/23 06:56:04;;;;;;;9.32;2.85;;;;;;;7.21;100.00;103155.16;5054024;28;20052;-66
2021/11/23 06:58:29;;;;;;;8.80;2.53;;;;;;;7.20;100.00;103150.75;5066262;28;20024;-66
2021/11/23 07:00:54;;;;;;;8.13;2.30;;;;;;;7.20;100.00;103150.75;5066130;28;20500;-66
2021/11/23 07:03:19;;;;;;;7.20;2.42;;;;;;;7.20;100.00;103152.53;5052496;28;20033;-65
2021/11/23 07:05:45;;;;;;;7.22;2.40;;;;;;;7.21;100.00;103154.25;5058295;28;20025;-67
2021/11/23 07:08:10;;;;;;;12.13;2.85;;;;;;;7.22;100.00;103158.66;5063656;28;20372;-66
2021/11/23 07:10:35;;;;;;;13.40;3.13;;;;;;;7.24;100.00;103163.94;5072715;28;20035;-66
2021/11/23 07:13:01;;;;;;;8.52;3.00;;;;;;;7.25;100.00;103168.34;5072511;28;20025;-66
2021/11/23 07:15:27;;;;;;;8.18;2.65;;;;;;;7.24;100.00;103169.19;5062046;28;20029;-66
2021/11/23 07:17:52;;;;;;;8.32;2.25;;;;;;;7.20;100.00;103169.19;5055315;28;20029;-65
2021/11/23 07:20:18;;;;;;;6.85;2.30;;;;;;;7.16;100.00;103175.31;5072157;28;20032;-66
2021/11/23 07:22:44;;;;;;;5.38;2.03;;;;;;;7.11;100.00;103179.69;5056745;28;20028;-65
2021/11/23 07:25:10;;;;;;;7.63;2.58;;;;;;;7.05;100.00;103179.63;5055030;28;20040;-65
2021/11/23 07:27:35;;;;;;;6.40;2.30;;;;;;;6.99;100.00;103167.28;5075525;28;20107;-64
2021/11/23 07:30:01;;;;;;;7.78;2.25;;;;;;;6.94;100.00;103176.91;5070360;28;20468;-65
2021/11/23 07:32:26;;;;;;;7.55;2.35;;;;;;;6.97;100.00;103176.03;5063362;28;20029;-65
2021/11/23 07:34:52;;;;;;;11.27;2.75;;;;;;;7.02;100.00;103176.94;5051786;28;20090;-66
2021/11/23 07:37:17;;;;;;;6.43;2.53;;;;;;;7.02;100.00;103183.13;5058253;28;20033;-64
2021/11/23 07:39:43;;;;;;;7.47;2.63;;;;;;;6.98;100.00;103185.72;5068468;28;20029;-64
2021/11/23 07:42:08;;;;;;;6.85;2.63;;;;;;;6.95;100.00;103185.69;5071984;28;20029;-65
2021/11/23 07:44:34;;;;;;;8.80;3.15;;;;;;;7.00;100.00;103194.53;5084002;28;20524;-65
2021/11/23 07:46:59;;;;;;;12.55;3.47;;;;;;;7.06;100.00;103191.94;5075511;28;20028;-64
2021/11/23 07:49:24;;;;;;;12.70;4.88;;;;;;;7.14;100.00;103190.22;5076539;28;20035;-65
2021/11/23 07:51:50;;;;;;;14.48;4.50;;;;;;;7.21;100.00;103184.16;5076436;28;20115;-65
2021/11/23 07:54:16;;;;;;;12.25;4.32;;;;;;;7.29;100.00;103188.56;5076548;28;20021;-65
2021/11/23 07:56:42;;;;;;;12.82;4.53;;;;;;;7.37;100.00;103190.38;5073687;28;20132;-66
2021/11/23 07:59:08;;;;;;;13.52;4.63;;;;;;;7.40;100.00;103194.78;5056232;28;20558;-65
2021/11/23 08:01:34;;;;;;;11.85;4.55;;;;;;;7.42;100.00;103195.69;5062450;28;20032;-66
2021/11/23 08:03:59;;;;;;;9.75;4.25;;;;;;;7.47;100.00;103201.00;5075588;28;20028;-65
2021/11/23 08:06:24;;;;;;;13.50;4.53;;;;;;;7.50;100.00;103195.75;5075813;28;20048;-68
2021/11/23 08:08:50;;;;;;;11.90;5.28;;;;;;;7.47;100.00;103193.97;5070968;28;20465;-68
2021/11/23 08:11:15;;;;;;;11.63;5.65;;;;;;;7.46;100.00;103191.34;5056335;28;20082;-66
2021/11/23 08:13:41;;;;;;;13.20;5.47;;;;;;;7.47;100.00;103199.25;5070529;28;20021;-64
2021/11/23 08:16:06;;;;;;;15.55;5.35;;;;;;;7.52;100.00;103199.28;5076104;28;20361;-65
2021/11/23 08:18:34;;;;;;;16.00;6.18;;;;;;;7.59;100.00;103203.69;5075828;28;20054;-63
2021/11/23 08:21:00;;;;;;;18.83;6.43;;;;;;;7.69;100.00;103204.63;5075111;28;20077;-64
2021/11/23 08:23:25;;;;;;;13.55;6.30;;;;;;;7.71;100.00;103209.06;5076493;28;20040;-65
2021/11/23 08:25:53;;;;;;;10.90;5.30;;;;;;;7.75;100.00;103214.31;5075873;28;20032;-64
2021/11/23 08:28:20;;;;;;;10.88;5.15;;;;;;;7.81;100.00;103217.00;5078997;28;20024;-64
2021/11/23 08:30:46;;;;;;;14.38;5.03;;;;;;;7.86;100.00;103224.09;5075770;28;20130;-65
2021/11/23 08:33:12;;;;;;;12.27;5.00;;;;;;;7.89;100.00;103220.56;5075687;28;20058;-65
2021/11/23 08:35:38;;;;;;;12.13;5.35;;;;;;;7.93;100.00;103217.06;5074514;28;20082;-64
2021/11/23 08:38:04;;;;;;;12.45;5.10;;;;;;;8.00;100.00;103225.88;5075663;28;20020;-65
2021/11/23 08:40:29;;;;;;;11.32;4.13;;;;;;;8.08;100.00;103215.38;5075010;28;20024;-64
2021/11/23 08:42:54;;;;;;;16.42;4.90;;;;;;;8.13;100.00;103218.91;5076142;28;20021;-65
2021/11/23 08:45:20;;;;;;;11.23;3.83;;;;;;;8.23;100.00;103215.41;5082588;28;20058;-65
2021/11/23 08:47:47;;;;;;;7.93;3.78;;;;;;;8.42;100.00;103211.06;5075698;28;20385;-64
2021/11/23 08:50:13;;;;;;;10.77;2.83;;;;;;;8.63;100.00;103218.19;5072819;28;20059;-64
2021/11/23 08:52:39;;;;;;;14.13;3.13;;;;;;;8.77;100.00;103217.31;5074908;28;20040;-64
2021/11/23 08:55:05;;;;;;;10.57;3.58;;;;;;;8.91;100.00;103215.56;5075320;28;20481;-64
2021/11/23 08:57:31;;;;;;;10.80;3.10;;;;;;;9.00;100.00;103220.88;5075094;28;20064;-64
2021/11/23 09:00:12;;;;;;;13.07;3.38;;;;;;;9.15;100.00;103227.03;5065108;28;20052;-66
2021/11/23 09:02:38;;;;;;;6.90;2.85;;;;;;;9.22;100.00;103212.03;5064344;28;20052;-65
2021/11/23 09:05:06;;;;;;;12.02;3.30;;;;;;;9.27;100.00;103215.56;5060637;28;20086;-65
2021/11/23 09:07:31;;;;;;;9.18;2.90;;;;;;;9.24;100.00;103228.78;5089469;28;20025;-64
2021/11/23 09:09:57;;;;;;;11.10;3.00;;;;;;;9.15;99.13;103227.03;5093515;28;20020;-65
2021/11/23 09:12:22;;;;;;;13.50;3.30;;;;;;;9.02;99.19;103232.31;5091701;28;20049;-65
2021/11/23 09:14:47;;;;;;;8.45;2.78;;;;;;;8.87;99.97;103244.66;5074510;28;20032;-64
2021/11/23 09:17:13;;;;;;;8.18;2.70;;;;;;;8.75;100.00;103243.75;5063251;28;20024;-65
2021/11/23 09:19:40;;;;;;;9.40;2.40;;;;;;;8.77;100.00;103241.09;5076169;28;20372;-64
2021/11/23 09:22:05;;;;;;;9.10;2.10;;;;;;;8.76;100.00;103239.31;5074564;28;20028;-65
2021/11/23 09:24:31;;;;;;;7.65;2.28;;;;;;;8.75;100.00;103243.75;5079316;28;20028;-65
2021/11/23 09:26:57;;;;;;;5.43;1.77;;;;;;;8.75;100.00;103245.53;5090304;28;20102;-65
2021/11/23 09:29:22;;;;;;;4.28;1.85;;;;;;;8.75;100.00;103241.09;5075342;28;20094;-66
2021/11/23 09:31:49;;;;;;;8.98;2.35;;;;;;;8.76;100.00;103245.50;5075007;28;20055;-65
2021/11/23 09:34:16;;;;;;;7.40;1.92;;;;;;;8.83;100.00;103236.69;5068412;28;20044;-66
2021/11/23 09:36:43;;;;;;;5.53;1.88;;;;;;;8.83;100.00;103239.34;5072975;28;20089;-65
2021/11/23 09:39:09;;;;;;;6.80;1.90;;;;;;;8.92;100.00;103243.75;5077128;28;20127;-66
2021/11/23 09:41:36;;;;;;;7.97;1.92;;;;;;;8.95;100.00;103237.59;5078295;28;20030;-66
2021/11/23 09:44:03;;;;;;;5.93;2.00;;;;;;;9.00;100.00;103235.81;5073756;28;20017;-65
2021/11/23 09:46:37;;;;;;;5.68;1.98;;;;;;;9.09;100.00;103237.59;5073517;28;20047;-65
2021/11/23 09:49:03;;;;;;;6.28;1.80;;;;;;;9.15;100.00;103241.09;5069784;28;20136;-65
2021/11/23 09:51:30;;;;;;;7.07;1.83;;;;;;;9.24;100.00;103242.88;5067528;28;20028;-64
2021/11/23 09:53:57;;;;;;;4.80;1.80;;;;;;;9.35;99.61;103240.25;5066249;28;20025;-66
2021/11/23 09:56:23;;;;;;;5.20;1.63;;;;;;;9.57;100.00;103233.13;5062562;28;20020;-65
2021/11/23 09:58:55;;;;;;;5.45;1.73;;;;;;;9.71;98.41;103246.34;5070400;28;20442;-66
2021/11/23 10:01:23;;;;;;;11.80;2.20;;;;;;;9.76;96.73;103235.75;5065289;28;20032;-66
2021/11/23 10:03:49;;;;;;;6.28;1.63;;;;;;;9.78;95.85;103242.81;5080176;28;20099;-66
2021/11/23 10:06:20;;;;;;;8.73;1.95;;;;;;;9.79;94.94;103246.31;5080383;28;20111;-66
2021/11/23 10:08:48;;;;;;;5.13;1.50;;;;;;;9.92;95.13;103252.44;5065079;28;20024;-66
2021/11/23 10:11:25;;;;;;;6.53;1.50;;;;;;;10.18;93.49;103244.41;5067865;28;20499;-65
2021/11/23 10:13:54;;;;;;;9.50;1.75;;;;;;;10.59;92.91;103247.78;5059737;28;20468;-66
2021/11/23 10:16:20;;;;;;;7.30;1.80;;;;;;;11.42;90.15;103231.19;5068864;28;20025;-65
2021/11/23 10:18:50;;;;;;;5.97;1.60;;;;;;;12.05;83.82;103234.94;5058909;28;20090;-66
2021/11/23 10:21:17;;;;;;;5.50;2.10;;;;;;;11.98;81.80;103232.38;5056756;28;20056;-67
2021/11/23 10:23:47;;;;;;;5.30;1.40;;;;;;;11.78;82.05;103228.16;5058814;28;20029;-65
2021/11/23 10:26:19;;;;;;;8.55;1.50;;;;;;;11.64;83.49;103233.59;5057681;28;20028;-65
2021/11/23 10:28:50;;;;;;;7.15;1.73;;;;;;;11.57;83.21;103238.13;5071811;28;20024;-67
2021/11/23 10:31:16;;;;;;;9.23;2.35;;;;;;;11.38;85.17;103241.81;5070531;28;20078;-66
2021/11/23 10:33:43;;;;;;;6.82;2.10;;;;;;;11.13;86.59;103236.75;5081066;28;20044;-66
2021/11/23 10:36:12;;;;;;;8.20;2.22;;;;;;;10.80;88.29;103239.66;5088466;28;20479;-67
2021/11/23 10:38:39;;;;;;;5.22;1.63;;;;;;;10.47;89.54;103240.75;5079769;28;20032;-66
2021/11/23 10:41:15;;;;;;;8.43;1.80;;;;;;;10.23;91.07;103233.78;5091709;28;20020;-66
2021/11/23 10:43:42;;;;;;;8.30;2.15;;;;;;;10.12;91.97;103228.56;5091481;28;20059;-66
2021/11/23 10:46:18;;;;;;;9.23;1.98;;;;;;;10.10;93.29;103223.28;5091451;28;20027;-67
2021/11/23 10:48:56;;;;;;;7.80;2.05;;;;;;;10.15;93.58;103233.81;5072769;28;20055;-66
2021/11/23 10:51:23;;;;;;;7.22;2.08;;;;;;;10.21;93.10;103230.28;5072331;28;20392;-65
2021/11/23 10:53:49;;;;;;;5.68;1.60;;;;;;;10.25;93.37;103230.25;5060916;28;20047;-65
2021/11/23 10:56:17;;;;;;;6.93;2.58;;;;;;;10.24;93.19;103233.78;5072434;28;20020;-66
2021/11/23 10:58:45;;;;;;;6.95;1.73;;;;;;;10.28;93.21;103219.66;5072203;28;20090;-65
2021/11/23 11:01:11;;;;;;;5.43;1.70;;;;;;;10.42;92.76;103214.31;5092654;28;20034;-65
2021/11/23 11:03:38;;;;;;;6.40;2.40;;;;;;;10.52;91.64;103216.91;5060122;28;20798;-66
2021/11/23 11:06:05;;;;;;;5.57;1.70;;;;;;;10.65;90.82;103208.84;5071581;28;20035;-65
2021/11/23 11:08:46;;;;;;;6.05;1.55;;;;;;;10.76;89.86;103211.41;5069122;28;20013;-64
2021/11/23 11:11:16;;;;;;;6.30;1.77;;;;;;;10.91;89.16;103213.06;5065114;28;20482;-67
2021/11/23 11:13:47;;;;;;;4.05;1.10;;;;;;;11.09;88.02;103211.16;5070033;28;20052;-65
2021/11/23 11:16:14;;;;;;;4.87;1.90;;;;;;;11.24;87.05;103211.03;5071897;28;20036;-65
2021/11/23 11:18:39;;;;;;;5.03;1.70;;;;;;;11.36;86.53;103211.81;5082661;28;20124;-65
2021/11/23 11:21:05;;;;;;;3.95;1.38;;;;;;;11.58;86.56;103200.03;5087337;28;20476;-65